sensor_id;sensor_type;location;lat;lon;timestamp;pressure;altitude;pressure_sealevel;temperature;humidity
12763;BME280;6445;52.490;13.378;2022-08-02T00:00:14;52184.03;;;-146.10;53.89
12763;BME280;6445;52.490;13.378;2022-08-02T00:02:41;52164.00;;;-146.10;54.29
12763;BME280;6445;52.490;13.378;2022-08-02T00:05:06;52164.00;;;-146.10;54.28
12763;BME280;6445;52.490;13.378;2022-08-02T00:07:32;52172.00;;;-146.10;54.19
12763;BME280;6445;52.490;13.378;2022-08-02T00:09:57;52158.00;;;-146.10;54.11
12763;BME280;6445;52.490;13.378;2022-08-02T00:12:23;52146.00;;;-146.10;53.81
12763;BME280;6445;52.490;13.378;2022-08-02T00:14:48;52168.00;;;-146.10;53.73
12763;BME280;6445;52.490;13.378;2022-08-02T00:17:13;52168.00;;;-146.10;53.75
12763;BME280;6445;52.490;13.378;2022-08-02T00:19:39;52176.00;;;-146.10;53.31
12763;BME280;6445;52.490;13.378;2022-08-02T00:22:04;52154.00;;;-146.10;52.60
12763;BME280;6445;52.490;13.378;2022-08-02T00:24:29;52170.00;;;-146.10;51.84
12763;BME280;6445;52.490;13.378;2022-08-02T00:26:54;52166.00;;;-146.10;51.61
12763;BME280;6445;52.490;13.378;2022-08-02T00:29:20;52166.00;;;-146.10;51.78
12763;BME280;6445;52.490;13.378;2022-08-02T00:31:45;52148.00;;;-146.10;50.76
12763;BME280;6445;52.490;13.378;2022-08-02T00:34:10;52160.00;;;-146.10;50.59
12763;BME280;6445;52.490;13.378;2022-08-02T00:36:35;52172.00;;;-146.10;50.31
12763;BME280;6445;52.490;13.378;2022-08-02T00:39:01;52146.00;;;-146.10;49.92
12763;BME280;6445;52.490;13.378;2022-08-02T00:41:26;52138.00;;;-146.10;50.01
12763;BME280;6445;52.490;13.378;2022-08-02T00:43:51;52152.00;;;-146.10;49.91
12763;BME280;6445;52.490;13.378;2022-08-02T00:46:18;52162.00;;;-146.10;49.59
12763;BME280;6445;52.490;13.378;2022-08-02T00:48:44;52172.00;;;-146.10;49.84
12763;BME280;6445;52.490;13.378;2022-08-02T00:51:10;52172.00;;;-146.10;50.13
12763;BME280;6445;52.490;13.378;2022-08-02T00:53:36;52174.00;;;-146.10;49.72
12763;BME280;6445;52.490;13.378;2022-08-02T00:56:01;52194.03;;;-146.10;49.76
12763;BME280;6445;52.490;13.378;2022-08-02T00:58:26;52148.00;;;-146.10;50.11
12763;BME280;6445;52.490;13.378;2022-08-02T01:00:52;52168.00;;;-146.10;49.97
12763;BME280;6445;52.490;13.378;2022-08-02T01:03:18;52176.00;;;-146.10;49.95
12763;BME280;6445;52.490;13.378;2022-08-02T01:05:43;52190.03;;;-146.10;50.07
12763;BME280;6445;52.490;13.378;2022-08-02T01:08:09;52148.00;;;-146.10;50.28
12763;BME280;6445;52.490;13.378;2022-08-02T01:10:34;52172.00;;;-146.10;50.05
12763;BME280;6445;52.490;13.378;2022-08-02T01:12:59;52168.00;;;-146.10;50.07
12763;BME280;6445;52.490;13.378;2022-08-02T01:15:25;52148.00;;;-146.10;50.42
12763;BME280;6445;52.490;13.378;2022-08-02T01:18:02;52142.00;;;-146.10;50.16
12763;BME280;6445;52.490;13.378;2022-08-02T01:26:46;52156.00;;;-146.10;49.95
12763;BME280;6445;52.490;13.378;2022-08-02T01:34:35;52170.00;;;-146.10;49.73
12763;BME280;6445;52.490;13.378;2022-08-02T01:37:08;52124.00;;;-146.10;50.15
12763;BME280;6445;52.490;13.378;2022-08-02T01:39:37;52142.00;;;-146.10;49.97
12763;BME280;6445;52.490;13.378;2022-08-02T01:42:05;52158.00;;;-146.10;50.19
12763;BME280;6445;52.490;13.378;2022-08-02T01:44:34;52138.00;;;-146.10;50.06
12763;BME280;6445;52.490;13.378;2022-08-02T01:47:04;52154.00;;;-146.10;50.26
12763;BME280;6445;52.490;13.378;2022-08-02T01:49:33;52168.00;;;-146.10;50.37
12763;BME280;6445;52.490;13.378;2022-08-02T01:52:00;52152.00;;;-146.10;50.61
12763;BME280;6445;52.490;13.378;2022-08-02T01:54:49;52152.00;;;-146.10;50.55
12763;BME280;6445;52.490;13.378;2022-08-02T01:57:17;52162.00;;;-146.10;50.50
12763;BME280;6445;52.490;13.378;2022-08-02T01:59:45;52164.00;;;-146.10;50.64
12763;BME280;6445;52.490;13.378;2022-08-02T02:02:11;52154.00;;;-146.10;50.60
12763;BME280;6445;52.490;13.378;2022-08-02T02:04:39;52162.00;;;-146.10;50.87
12763;BME280;6445;52.490;13.378;2022-08-02T02:07:06;52152.00;;;-146.10;50.62
12763;BME280;6445;52.490;13.378;2022-08-02T02:09:35;52158.00;;;-146.10;50.46
12763;BME280;6445;52.490;13.378;2022-08-02T02:12:02;52148.00;;;-146.10;50.37
12763;BME280;6445;52.490;13.378;2022-08-02T02:14:28;52154.00;;;-146.10;49.87
12763;BME280;6445;52.490;13.378;2022-08-02T02:16:54;52166.00;;;-146.10;49.16
12763;BME280;6445;52.490;13.378;2022-08-02T02:19:21;52148.00;;;-146.10;49.95
12763;BME280;6445;52.490;13.378;2022-08-02T02:21:47;52142.00;;;-146.10;50.05
12763;BME280;6445;52.490;13.378;2022-08-02T02:24:13;52156.00;;;-146.10;49.53
12763;BME280;6445;52.490;13.378;2022-08-02T02:26:40;52144.00;;;-146.10;49.67
12763;BME280;6445;52.490;13.378;2022-08-02T02:29:08;52178.00;;;-146.10;49.41
12763;BME280;6445;52.490;13.378;2022-08-02T02:31:37;52162.00;;;-146.10;48.85
12763;BME280;6445;52.490;13.378;2022-08-02T02:34:07;52152.00;;;-146.10;48.61
12763;BME280;6445;52.490;13.378;2022-08-02T02:36:35;52138.00;;;-146.10;47.54
12763;BME280;6445;52.490;13.378;2022-08-02T02:39:04;52162.00;;;-146.10;47.35
12763;BME280;6445;52.490;13.378;2022-08-02T02:41:30;52158.00;;;-146.10;47.15
12763;BME280;6445;52.490;13.378;2022-08-02T02:43:58;52154.00;;;-146.10;47.33
12763;BME280;6445;52.490;13.378;2022-08-02T02:46:25;52148.00;;;-146.10;47.19
12763;BME280;6445;52.490;13.378;2022-08-02T02:48:51;52152.00;;;-146.10;47.35
12763;BME280;6445;52.490;13.378;2022-08-02T02:51:18;52170.00;;;-146.10;47.16
12763;BME280;6445;52.490;13.378;2022-08-02T02:53:45;52152.00;;;-146.10;46.26
12763;BME280;6445;52.490;13.378;2022-08-02T02:56:12;52144.00;;;-146.10;45.42
12763;BME280;6445;52.490;13.378;2022-08-02T02:58:39;52138.00;;;-146.10;45.48
12763;BME280;6445;52.490;13.378;2022-08-02T03:01:05;52154.00;;;-146.10;44.55
12763;BME280;6445;52.490;13.378;2022-08-02T03:03:50;52148.00;;;-146.10;44.58
12763;BME280;6445;52.490;13.378;2022-08-02T03:06:15;52142.00;;;-146.10;44.90
12763;BME280;6445;52.490;13.378;2022-08-02T03:08:41;52118.00;;;-146.10;44.52
12763;BME280;6445;52.490;13.378;2022-08-02T03:11:08;52136.00;;;-146.10;44.36
12763;BME280;6445;52.490;13.378;2022-08-02T03:13:34;52156.00;;;-146.10;43.91
12763;BME280;6445;52.490;13.378;2022-08-02T03:16:00;52126.00;;;-146.10;42.76
12763;BME280;6445;52.490;13.378;2022-08-02T03:18:37;52112.00;;;-146.10;42.86
12763;BME280;6445;52.490;13.378;2022-08-02T03:21:04;52144.00;;;-146.10;42.84
12763;BME280;6445;52.490;13.378;2022-08-02T03:23:31;52134.00;;;-146.10;42.97
12763;BME280;6445;52.490;13.378;2022-08-02T03:25:57;52122.00;;;-146.10;42.93
12763;BME280;6445;52.490;13.378;2022-08-02T03:28:22;52142.00;;;-146.10;43.17
12763;BME280;6445;52.490;13.378;2022-08-02T03:30:48;52126.00;;;-146.10;43.74
12763;BME280;6445;52.490;13.378;2022-08-02T03:33:13;52130.00;;;-146.10;43.91
12763;BME280;6445;52.490;13.378;2022-08-02T03:35:40;52124.00;;;-146.10;44.27
12763;BME280;6445;52.490;13.378;2022-08-02T03:38:06;52108.00;;;-146.10;44.61
12763;BME280;6445;52.490;13.378;2022-08-02T03:40:33;52110.00;;;-146.10;44.89
12763;BME280;6445;52.490;13.378;2022-08-02T03:43:00;52102.00;;;-146.10;44.33
12763;BME280;6445;52.490;13.378;2022-08-02T03:45:26;52100.00;;;-146.10;43.93
12763;BME280;6445;52.490;13.378;2022-08-02T03:47:51;52138.00;;;-146.10;44.20
12763;BME280;6445;52.490;13.378;2022-08-02T03:50:17;52116.00;;;-146.10;44.76
12763;BME280;6445;52.490;13.378;2022-08-02T03:52:44;52104.00;;;-146.10;45.22
12763;BME280;6445;52.490;13.378;2022-08-02T03:55:10;52100.00;;;-146.10;45.42
12763;BME280;6445;52.490;13.378;2022-08-02T03:57:38;52094.00;;;-146.10;46.50
12763;BME280;6445;52.490;13.378;2022-08-02T04:00:05;52104.00;;;-146.10;46.62
12763;BME280;6445;52.490;13.378;2022-08-02T04:02:30;52096.00;;;-146.10;47.20
12763;BME280;6445;52.490;13.378;2022-08-02T04:04:55;52124.00;;;-146.10;46.94
12763;BME280;6445;52.490;13.378;2022-08-02T04:07:21;52110.00;;;-146.10;47.02
12763;BME280;6445;52.490;13.378;2022-08-02T04:09:46;52140.00;;;-146.10;47.67
12763;BME280;6445;52.490;13.378;2022-08-02T04:12:11;52138.00;;;-146.10;48.14
12763;BME280;6445;52.490;13.378;2022-08-02T04:14:36;52132.00;;;-146.10;48.77
12763;BME280;6445;52.490;13.378;2022-08-02T04:17:06;52116.00;;;-146.10;48.87
12763;BME280;6445;52.490;13.378;2022-08-02T04:19:46;52126.00;;;-146.10;48.99
12763;BME280;6445;52.490;13.378;2022-08-02T04:22:26;52140.00;;;-146.10;49.30
12763;BME280;6445;52.490;13.378;2022-08-02T04:24:58;52124.00;;;-146.10;49.27
12763;BME280;6445;52.490;13.378;2022-08-02T04:27:24;52140.00;;;-146.10;49.16
12763;BME280;6445;52.490;13.378;2022-08-02T04:29:50;52130.00;;;-146.10;49.35
12763;BME280;6445;52.490;13.378;2022-08-02T04:32:16;52134.00;;;-146.10;49.09
12763;BME280;6445;52.490;13.378;2022-08-02T04:34:43;52156.00;;;-146.10;49.15
12763;BME280;6445;52.490;13.378;2022-08-02T04:37:11;52144.00;;;-146.10;49.33
12763;BME280;6445;52.490;13.378;2022-08-02T04:39:36;52156.00;;;-146.10;48.96
12763;BME280;6445;52.490;13.378;2022-08-02T04:42:02;52144.00;;;-146.10;48.73
12763;BME280;6445;52.490;13.378;2022-08-02T04:44:27;52142.00;;;-146.10;48.45
12763;BME280;6445;52.490;13.378;2022-08-02T04:46:52;52136.00;;;-146.10;48.57
12763;BME280;6445;52.490;13.378;2022-08-02T04:49:19;52142.00;;;-146.10;48.45
12763;BME280;6445;52.490;13.378;2022-08-02T04:51:44;52158.00;;;-146.10;48.95
12763;BME280;6445;52.490;13.378;2022-08-02T04:54:10;52142.00;;;-146.10;48.86
12763;BME280;6445;52.490;13.378;2022-08-02T04:56:37;52174.00;;;-146.10;48.73
12763;BME280;6445;52.490;13.378;2022-08-02T04:59:02;52156.00;;;-146.10;48.71
12763;BME280;6445;52.490;13.378;2022-08-02T05:01:27;52118.00;;;-146.10;48.47
12763;BME280;6445;52.490;13.378;2022-08-02T05:03:53;52142.00;;;-146.10;49.78
12763;BME280;6445;52.490;13.378;2022-08-02T05:06:18;52150.00;;;-146.10;50.52
12763;BME280;6445;52.490;13.378;2022-08-02T05:08:44;52178.00;;;-146.10;50.47
12763;BME280;6445;52.490;13.378;2022-08-02T05:11:09;52122.00;;;-146.10;50.58
12763;BME280;6445;52.490;13.378;2022-08-02T05:13:35;52164.00;;;-146.10;49.78
12763;BME280;6445;52.490;13.378;2022-08-02T05:16:00;52160.00;;;-146.10;49.40
12763;BME280;6445;52.490;13.378;2022-08-02T05:18:27;52184.03;;;-146.10;49.67
12763;BME280;6445;52.490;13.378;2022-08-02T05:20:53;52168.00;;;-146.10;49.80
12763;BME280;6445;52.490;13.378;2022-08-02T05:23:18;52186.03;;;-146.10;49.68
12763;BME280;6445;52.490;13.378;2022-08-02T05:25:43;52148.00;;;-146.10;49.56
12763;BME280;6445;52.490;13.378;2022-08-02T05:28:09;52148.00;;;-146.10;49.44
12763;BME280;6445;52.490;13.378;2022-08-02T05:30:34;52150.00;;;-146.10;48.85
12763;BME280;6445;52.490;13.378;2022-08-02T05:32:59;52156.00;;;-146.10;48.77
12763;BME280;6445;52.490;13.378;2022-08-02T05:35:24;52200.03;;;-146.10;nan
12763;BME280;6445;52.490;13.378;2022-08-02T05:37:51;52210.03;;;-146.10;47.10
12763;BME280;6445;52.490;13.378;2022-08-02T05:40:19;52272.03;;;-146.10;44.13
12763;BME280;6445;52.490;13.378;2022-08-02T05:42:44;52418.09;;;-146.10;40.91
12763;BME280;6445;52.490;13.378;2022-08-02T05:45:10;52496.13;;;-146.10;37.96
12763;BME280;6445;52.490;13.378;2022-08-02T05:47:36;52580.16;;;-146.10;36.56
12763;BME280;6445;52.490;13.378;2022-08-02T05:50:03;52528.13;;;-146.10;36.68
12763;BME280;6445;52.490;13.378;2022-08-02T05:55:26;52654.19;;;-146.10;34.18
12763;BME280;6445;52.490;13.378;2022-08-02T05:58:02;52686.19;;;-146.10;33.95
12763;BME280;6445;52.490;13.378;2022-08-02T06:00:30;52674.19;;;-146.10;32.86
12763;BME280;6445;52.490;13.378;2022-08-02T06:03:14;52726.22;;;-146.10;32.68
12763;BME280;6445;52.490;13.378;2022-08-02T06:08:31;52790.25;;;-146.10;31.06
12763;BME280;6445;52.490;13.378;2022-08-02T06:11:00;52948.31;;;-146.10;28.78
12763;BME280;6445;52.490;13.378;2022-08-02T06:13:27;52754.22;;;-146.10;31.13
12763;BME280;6445;52.490;13.378;2022-08-02T06:15:52;52816.25;;;-146.10;30.44
12763;BME280;6445;52.490;13.378;2022-08-02T06:18:20;52774.22;;;-146.10;31.11
12763;BME280;6445;52.490;13.378;2022-08-02T06:20:49;52964.31;;;-146.10;29.39
12763;BME280;6445;52.490;13.378;2022-08-02T06:23:15;52838.25;;;-146.10;29.86
12763;BME280;6445;52.490;13.378;2022-08-02T06:25:44;52896.28;;;-146.10;29.93
12763;BME280;6445;52.490;13.378;2022-08-02T06:28:12;52856.28;;;-146.10;30.17
12763;BME280;6445;52.490;13.378;2022-08-02T06:30:38;52894.28;;;-146.10;29.99
12763;BME280;6445;52.490;13.378;2022-08-02T06:33:03;52904.28;;;-146.10;29.91
12763;BME280;6445;52.490;13.378;2022-08-02T06:35:34;52976.31;;;-146.10;29.26
12763;BME280;6445;52.490;13.378;2022-08-02T06:38:06;53102.41;;;-146.10;28.71
12763;BME280;6445;52.490;13.378;2022-08-02T06:40:37;53006.34;;;-146.10;29.24
12763;BME280;6445;52.490;13.378;2022-08-02T06:43:30;52910.28;;;-146.10;29.71
12763;BME280;6445;52.490;13.378;2022-08-02T06:45:58;52702.19;;;-146.10;30.78
12763;BME280;6445;52.490;13.378;2022-08-02T06:48:23;52816.25;;;-146.10;30.05
12763;BME280;6445;52.490;13.378;2022-08-02T06:50:49;52740.22;;;-146.10;30.72
12763;BME280;6445;52.490;13.378;2022-08-02T06:53:14;52780.25;;;-146.10;29.98
12763;BME280;6445;52.490;13.378;2022-08-02T06:55:39;52776.22;;;-146.10;30.20
12763;BME280;6445;52.490;13.378;2022-08-02T06:58:04;52852.28;;;-146.10;29.63
12763;BME280;6445;52.490;13.378;2022-08-02T07:00:30;52960.31;;;-146.10;29.07
12763;BME280;6445;52.490;13.378;2022-08-02T07:02:56;52896.28;;;-146.10;29.20
12763;BME280;6445;52.490;13.378;2022-08-02T07:05:21;53068.38;;;-146.10;27.81
12763;BME280;6445;52.490;13.378;2022-08-02T07:07:47;52814.25;;;-146.10;29.27
12763;BME280;6445;52.490;13.378;2022-08-02T07:10:13;52764.22;;;-146.10;29.86
12763;BME280;6445;52.490;13.378;2022-08-02T07:12:39;53056.38;;;-146.10;27.91
12763;BME280;6445;52.490;13.378;2022-08-02T07:15:05;53034.34;;;-146.10;27.81
12763;BME280;6445;52.490;13.378;2022-08-02T07:17:31;52956.31;;;-146.10;28.64
12763;BME280;6445;52.490;13.378;2022-08-02T07:19:57;52884.28;;;-146.10;29.33
12763;BME280;6445;52.490;13.378;2022-08-02T07:22:23;52934.31;;;-146.10;29.03
12763;BME280;6445;52.490;13.378;2022-08-02T07:24:51;53048.38;;;-146.10;27.67
12763;BME280;6445;52.490;13.378;2022-08-02T07:27:16;52970.31;;;-146.10;28.13
12763;BME280;6445;52.490;13.378;2022-08-02T07:29:41;53134.41;;;-146.10;26.99
12763;BME280;6445;52.490;13.378;2022-08-02T07:32:07;53254.47;;;-146.10;26.47
12763;BME280;6445;52.490;13.378;2022-08-02T07:34:32;53236.47;;;-146.10;26.37
12763;BME280;6445;52.490;13.378;2022-08-02T07:36:57;53032.34;;;-146.10;27.69
12763;BME280;6445;52.490;13.378;2022-08-02T07:39:22;52986.34;;;-146.10;27.85
12763;BME280;6445;52.490;13.378;2022-08-02T07:41:48;53246.47;;;-146.10;26.09
12763;BME280;6445;52.490;13.378;2022-08-02T07:44:16;53324.50;;;-146.10;25.63
12763;BME280;6445;52.490;13.378;2022-08-02T07:46:42;53366.53;;;-146.10;25.55
12763;BME280;6445;52.490;13.378;2022-08-02T07:49:08;53546.66;;;-146.10;24.62
12763;BME280;6445;52.490;13.378;2022-08-02T07:51:33;53614.69;;;-146.10;24.06
12763;BME280;6445;52.490;13.378;2022-08-02T07:53:59;53208.44;;;-146.10;25.52
12763;BME280;6445;52.490;13.378;2022-08-02T07:56:25;53056.38;;;-146.10;26.68
12763;BME280;6445;52.490;13.378;2022-08-02T07:58:50;53492.63;;;-146.10;24.58
12763;BME280;6445;52.490;13.378;2022-08-02T08:01:15;53676.75;;;-146.10;24.29
12763;BME280;6445;52.490;13.378;2022-08-02T08:03:40;53458.59;;;-146.10;24.45
12763;BME280;6445;52.490;13.378;2022-08-02T08:06:06;53506.63;;;-146.10;24.62
12763;BME280;6445;52.490;13.378;2022-08-02T08:08:33;53262.47;;;-146.10;25.67
12763;BME280;6445;52.490;13.378;2022-08-02T08:10:59;53606.69;;;-146.10;23.86
12763;BME280;6445;52.490;13.378;2022-08-02T08:13:24;53346.53;;;-146.10;25.30
12763;BME280;6445;52.490;13.378;2022-08-02T08:15:49;53418.56;;;-146.10;24.79
12763;BME280;6445;52.490;13.378;2022-08-02T08:18:14;53160.44;;;-146.10;26.00
12763;BME280;6445;52.490;13.378;2022-08-02T08:20:40;53456.59;;;-146.10;24.73
12763;BME280;6445;52.490;13.378;2022-08-02T08:23:05;53568.66;;;-146.10;24.19
12763;BME280;6445;52.490;13.378;2022-08-02T08:25:30;53650.72;;;-146.10;23.50
12763;BME280;6445;52.490;13.378;2022-08-02T08:27:55;53602.69;;;-146.10;23.85
12763;BME280;6445;52.490;13.378;2022-08-02T08:30:21;53636.72;;;-146.10;23.78
12763;BME280;6445;52.490;13.378;2022-08-02T08:32:47;53820.84;;;-146.10;23.20
12763;BME280;6445;52.490;13.378;2022-08-02T08:35:12;53534.66;;;-146.10;24.17
12763;BME280;6445;52.490;13.378;2022-08-02T08:37:39;53642.72;;;-146.10;23.46
12763;BME280;6445;52.490;13.378;2022-08-02T08:40:08;53772.81;;;-146.10;23.18
12763;BME280;6445;52.490;13.378;2022-08-02T08:42:36;54016.97;;;-146.10;22.50
12763;BME280;6445;52.490;13.378;2022-08-02T08:45:03;53892.88;;;-146.10;22.89
12763;BME280;6445;52.490;13.378;2022-08-02T08:47:36;53848.84;;;-146.10;22.86
12763;BME280;6445;52.490;13.378;2022-08-02T08:50:10;53954.94;;;-146.10;22.23
12763;BME280;6445;52.490;13.378;2022-08-02T08:52:41;54020.97;;;-146.10;22.22
12763;BME280;6445;52.490;13.378;2022-08-02T08:55:09;54095.03;;;-146.10;21.64
12763;BME280;6445;52.490;13.378;2022-08-02T08:57:41;54199.13;;;-146.10;21.83
12763;BME280;6445;52.490;13.378;2022-08-02T09:00:09;54018.97;;;-146.10;21.97
12763;BME280;6445;52.490;13.378;2022-08-02T09:02:36;54091.03;;;-146.10;21.66
12763;BME280;6445;52.490;13.378;2022-08-02T09:05:03;53968.94;;;-146.10;22.07
12763;BME280;6445;52.490;13.378;2022-08-02T09:07:28;53908.91;;;-146.10;22.42
12763;BME280;6445;52.490;13.378;2022-08-02T09:09:53;53426.56;;;-146.10;24.29
12763;BME280;6445;52.490;13.378;2022-08-02T09:12:19;53424.56;;;-146.10;24.23
12763;BME280;6445;52.490;13.378;2022-08-02T09:14:46;53096.38;;;-146.10;26.04
12763;BME280;6445;52.490;13.378;2022-08-02T09:17:11;53080.38;;;-146.10;26.22
12763;BME280;6445;52.490;13.378;2022-08-02T09:19:38;53136.41;;;-146.10;25.93
12763;BME280;6445;52.490;13.378;2022-08-02T09:22:09;53124.41;;;-146.10;26.28
12763;BME280;6445;52.490;13.378;2022-08-02T09:24:46;53220.47;;;-146.10;25.70
12763;BME280;6445;52.490;13.378;2022-08-02T09:27:13;53184.44;;;-146.10;25.61
12763;BME280;6445;52.490;13.378;2022-08-02T09:29:38;53070.38;;;-146.10;26.60
12763;BME280;6445;52.490;13.378;2022-08-02T09:32:04;53172.44;;;-146.10;25.73
12763;BME280;6445;52.490;13.378;2022-08-02T09:34:49;53196.44;;;-146.10;25.72
12763;BME280;6445;52.490;13.378;2022-08-02T09:37:28;53238.47;;;-146.10;25.29
12763;BME280;6445;52.490;13.378;2022-08-02T09:39:55;53332.53;;;-146.10;24.69
12763;BME280;6445;52.490;13.378;2022-08-02T09:42:21;53320.50;;;-146.10;25.29
12763;BME280;6445;52.490;13.378;2022-08-02T09:47:19;53426.56;;;-146.10;24.41
12763;BME280;6445;52.490;13.378;2022-08-02T09:49:45;53286.50;;;-146.10;25.10
12763;BME280;6445;52.490;13.378;2022-08-02T09:52:12;53404.56;;;-146.10;24.01
12763;BME280;6445;52.490;13.378;2022-08-02T09:54:38;53260.47;;;-146.10;25.46
12763;BME280;6445;52.490;13.378;2022-08-02T09:57:03;53220.47;;;-146.10;25.53
12763;BME280;6445;52.490;13.378;2022-08-02T09:59:29;53480.63;;;-146.10;24.61
12763;BME280;6445;52.490;13.378;2022-08-02T10:01:56;53510.63;;;-146.10;23.86
12763;BME280;6445;52.490;13.378;2022-08-02T10:04:24;53640.72;;;-146.10;23.59
12763;BME280;6445;52.490;13.378;2022-08-02T10:06:51;53340.53;;;-146.10;24.73
12763;BME280;6445;52.490;13.378;2022-08-02T10:09:16;53302.50;;;-146.10;25.21
12763;BME280;6445;52.490;13.378;2022-08-02T10:11:47;53330.53;;;-146.10;24.68
12763;BME280;6445;52.490;13.378;2022-08-02T10:14:12;53304.50;;;-146.10;25.05
12763;BME280;6445;52.490;13.378;2022-08-02T10:16:42;53214.44;;;-146.10;25.79
12763;BME280;6445;52.490;13.378;2022-08-02T10:19:09;53108.41;;;-146.10;25.68
12763;BME280;6445;52.490;13.378;2022-08-02T10:21:43;52938.31;;;-146.10;27.08
12763;BME280;6445;52.490;13.378;2022-08-02T10:24:11;52886.28;;;-146.10;27.82
12763;BME280;6445;52.490;13.378;2022-08-02T10:26:39;52800.25;;;-146.10;28.44
12763;BME280;6445;52.490;13.378;2022-08-02T10:29:07;52846.28;;;-146.10;28.45
12763;BME280;6445;52.490;13.378;2022-08-02T10:31:42;52786.25;;;-146.10;28.75
12763;BME280;6445;52.490;13.378;2022-08-02T10:34:12;52850.28;;;-146.10;28.42
12763;BME280;6445;52.490;13.378;2022-08-02T10:36:39;52780.25;;;-146.10;28.96
12763;BME280;6445;52.490;13.378;2022-08-02T10:39:06;52776.22;;;-146.10;28.48
12763;BME280;6445;52.490;13.378;2022-08-02T10:41:39;52668.19;;;-146.10;29.95
12763;BME280;6445;52.490;13.378;2022-08-02T10:44:05;52652.19;;;-146.10;30.48
12763;BME280;6445;52.490;13.378;2022-08-02T10:46:35;52696.19;;;-146.10;29.87
12763;BME280;6445;52.490;13.378;2022-08-02T10:49:14;52710.22;;;-146.10;29.56
12763;BME280;6445;52.490;13.378;2022-08-02T10:54:22;52846.28;;;-146.10;28.64
12763;BME280;6445;52.490;13.378;2022-08-02T10:56:49;52796.25;;;-146.10;28.58
12763;BME280;6445;52.490;13.378;2022-08-02T10:59:33;52756.22;;;-146.10;29.15
12763;BME280;6445;52.490;13.378;2022-08-02T11:02:03;52728.22;;;-146.10;28.98
12763;BME280;6445;52.490;13.378;2022-08-02T11:07:17;52682.19;;;-146.10;29.70
12763;BME280;6445;52.490;13.378;2022-08-02T11:09:44;52732.22;;;-146.10;29.22
12763;BME280;6445;52.490;13.378;2022-08-02T11:12:12;52742.22;;;-146.10;29.30
12763;BME280;6445;52.490;13.378;2022-08-02T11:14:40;52748.22;;;-146.10;29.17
12763;BME280;6445;52.490;13.378;2022-08-02T11:22:32;52730.22;;;-146.10;29.07
12763;BME280;6445;52.490;13.378;2022-08-02T11:27:45;52774.22;;;-146.10;28.87
12763;BME280;6445;52.490;13.378;2022-08-02T11:30:11;52638.19;;;-146.10;30.10
12763;BME280;6445;52.490;13.378;2022-08-02T11:32:37;52688.19;;;-146.10;29.55
12763;BME280;6445;52.490;13.378;2022-08-02T11:35:02;52810.25;;;-146.10;28.40
12763;BME280;6445;52.490;13.378;2022-08-02T11:39:53;52914.31;;;-146.10;27.50
12763;BME280;6445;52.490;13.378;2022-08-02T11:42:19;52842.25;;;-146.10;27.33
12763;BME280;6445;52.490;13.378;2022-08-02T11:44:44;52914.31;;;-146.10;27.19
12763;BME280;6445;52.490;13.378;2022-08-02T11:47:10;52854.28;;;-146.10;27.33
12763;BME280;6445;52.490;13.378;2022-08-02T11:49:36;52770.22;;;-146.10;27.65
12763;BME280;6445;52.490;13.378;2022-08-02T11:52:07;52720.22;;;-146.10;28.93
12763;BME280;6445;52.490;13.378;2022-08-02T11:54:39;52752.22;;;-146.10;28.68
12763;BME280;6445;52.490;13.378;2022-08-02T11:57:20;52716.22;;;-146.10;28.51
12763;BME280;6445;52.490;13.378;2022-08-02T11:59:51;52696.19;;;-146.10;28.65
12763;BME280;6445;52.490;13.378;2022-08-02T12:02:21;52692.19;;;-146.10;28.64
12763;BME280;6445;52.490;13.378;2022-08-02T12:05:03;52690.19;;;-146.10;29.10
12763;BME280;6445;52.490;13.378;2022-08-02T12:07:31;52712.22;;;-146.10;28.86
12763;BME280;6445;52.490;13.378;2022-08-02T12:10:00;52730.22;;;-146.10;28.62
12763;BME280;6445;52.490;13.378;2022-08-02T12:12:26;52724.22;;;-146.10;27.72
12763;BME280;6445;52.490;13.378;2022-08-02T12:14:52;52706.22;;;-146.10;27.76
12763;BME280;6445;52.490;13.378;2022-08-02T12:17:24;52718.22;;;-146.10;28.21
12763;BME280;6445;52.490;13.378;2022-08-02T12:20:09;52708.22;;;-146.10;28.40
12763;BME280;6445;52.490;13.378;2022-08-02T12:22:34;52702.19;;;-146.10;28.12
12763;BME280;6445;52.490;13.378;2022-08-02T12:25:18;52708.22;;;-146.10;27.91
12763;BME280;6445;52.490;13.378;2022-08-02T12:27:44;52692.19;;;-146.10;28.32
12763;BME280;6445;52.490;13.378;2022-08-02T12:30:11;52670.19;;;-146.10;28.57
12763;BME280;6445;52.490;13.378;2022-08-02T12:32:38;52676.19;;;-146.10;28.37
12763;BME280;6445;52.490;13.378;2022-08-02T12:37:31;52874.28;;;-146.10;26.86
12763;BME280;6445;52.490;13.378;2022-08-02T12:39:56;52880.28;;;-146.10;26.92
12763;BME280;6445;52.490;13.378;2022-08-02T12:42:21;52876.28;;;-146.10;26.94
12763;BME280;6445;52.490;13.378;2022-08-02T12:44:52;52818.25;;;-146.10;27.75
12763;BME280;6445;52.490;13.378;2022-08-02T12:47:18;52850.28;;;-146.10;27.20
12763;BME280;6445;52.490;13.378;2022-08-02T12:49:45;52962.31;;;-146.10;26.29
12763;BME280;6445;52.490;13.378;2022-08-02T12:52:21;52898.28;;;-146.10;26.53
12763;BME280;6445;52.490;13.378;2022-08-02T12:54:46;52838.25;;;-146.10;26.98
12763;BME280;6445;52.490;13.378;2022-08-02T12:57:14;52984.34;;;-146.10;26.07
12763;BME280;6445;52.490;13.378;2022-08-02T12:59:41;52962.31;;;-146.10;26.33
12763;BME280;6445;52.490;13.378;2022-08-02T13:02:09;53066.38;;;-146.10;25.78
12763;BME280;6445;52.490;13.378;2022-08-02T13:04:35;53050.38;;;-146.10;25.80
12763;BME280;6445;52.490;13.378;2022-08-02T13:07:01;53104.41;;;-146.10;25.54
12763;BME280;6445;52.490;13.378;2022-08-02T13:09:27;53008.34;;;-146.10;25.65
12763;BME280;6445;52.490;13.378;2022-08-02T13:11:59;52956.31;;;-146.10;26.18
12763;BME280;6445;52.490;13.378;2022-08-02T13:14:24;53002.34;;;-146.10;25.83
12763;BME280;6445;52.490;13.378;2022-08-02T13:16:49;52958.31;;;-146.10;26.13
12763;BME280;6445;52.490;13.378;2022-08-02T13:19:15;53098.38;;;-146.10;25.19